createdAt,value
2022-07-29T00:00:15.206Z,4.35
2022-07-29T00:02:42.357Z,6.20
2022-07-29T00:05:10.179Z,8.07
2022-07-29T00:07:37.132Z,9.05
2022-07-29T00:10:05.547Z,6.10
2022-07-29T00:12:32.443Z,7.50
2022-07-29T00:14:59.345Z,8.55
2022-07-29T00:17:26.788Z,5.68
2022-07-29T00:19:54.305Z,8.73
2022-07-29T00:22:21.763Z,13.07
2022-07-29T00:24:50.354Z,10.45
2022-07-29T00:27:18.256Z,5.10
2022-07-29T00:29:45.160Z,5.15
2022-07-29T00:32:12.146Z,6.18
2022-07-29T00:34:57.735Z,4.13
2022-07-29T00:37:24.782Z,5.95
2022-07-29T00:39:51.684Z,4.80
2022-07-29T00:42:18.721Z,5.18
2022-07-29T00:44:45.662Z,5.78
2022-07-29T00:47:13.605Z,9.02
2022-07-29T00:49:42.026Z,9.70
2022-07-29T00:52:10.709Z,7.22
2022-07-29T00:54:44.343Z,6.15
2022-07-29T00:57:12.943Z,4.18
2022-07-29T00:59:39.986Z,7.32
2022-07-29T01:02:07.116Z,9.55
2022-07-29T01:04:34.491Z,5.85
2022-07-29T01:07:03.324Z,9.30
2022-07-29T01:09:35.974Z,7.38
2022-07-29T01:12:19.826Z,6.28
2022-07-29T01:14:48.916Z,7.30
2022-07-29T01:17:39.548Z,5.30
2022-07-29T01:20:31.701Z,8.05
2022-07-29T01:23:07.845Z,6.63
2022-07-29T01:26:13.387Z,7.22
2022-07-29T01:29:06.107Z,6.25
2022-07-29T01:32:09.684Z,7.45
2022-07-29T01:34:57.432Z,7.25
2022-07-29T01:37:34.144Z,7.18
2022-07-29T01:40:04.777Z,6.13
2022-07-29T01:42:45.858Z,8.90
2022-07-29T01:45:22.780Z,9.23
2022-07-29T01:48:03.306Z,7.65
2022-07-29T01:50:41.465Z,11.63
2022-07-29T01:53:13.770Z,8.32
2022-07-29T01:55:45.581Z,6.95
2022-07-29T01:58:15.765Z,8.93
2022-07-29T02:00:46.486Z,9.75
2022-07-29T02:03:14.984Z,7.82
2022-07-29T02:05:46.773Z,7.25
2022-07-29T02:08:14.704Z,11.93
2022-07-29T02:10:44.050Z,10.48
2022-07-29T02:13:13.499Z,7.43
2022-07-29T02:15:43.001Z,9.65
2022-07-29T02:18:15.528Z,8.95
2022-07-29T02:20:48.186Z,9.23
2022-07-29T02:23:20.590Z,6.57
2022-07-29T02:25:50.458Z,10.02
2022-07-29T02:28:20.206Z,7.32
2022-07-29T02:30:49.071Z,10.95
2022-07-29T02:33:18.190Z,11.43
2022-07-29T02:35:47.289Z,13.50
2022-07-29T02:38:35.639Z,9.77
2022-07-29T02:41:12.678Z,9.95
2022-07-29T02:43:41.821Z,9.10
2022-07-29T02:46:28.995Z,11.77
2022-07-29T02:49:04.044Z,9.70
2022-07-29T02:51:44.624Z,8.77
2022-07-29T02:54:33.395Z,10.75
2022-07-29T02:57:05.043Z,9.75
2022-07-29T02:59:35.724Z,9.90
2022-07-29T03:02:06.251Z,11.23
2022-07-29T03:04:35.599Z,11.03
2022-07-29T03:07:03.686Z,14.45
2022-07-29T03:09:31.489Z,14.43
2022-07-29T03:11:58.798Z,11.80
2022-07-29T03:14:26.816Z,12.10
2022-07-29T03:16:54.628Z,11.75
2022-07-29T03:19:22.041Z,15.70
2022-07-29T03:21:49.442Z,11.50
2022-07-29T03:24:38.000Z,9.30
2022-07-29T03:27:06.535Z,8.38
2022-07-29T03:29:34.709Z,13.35
2022-07-29T03:32:07.253Z,10.82
2022-07-29T03:34:35.149Z,13.48
2022-07-29T03:37:02.089Z,13.50
2022-07-29T03:39:32.629Z,12.70
2022-07-29T03:42:02.279Z,14.37
2022-07-29T03:44:30.455Z,18.90
2022-07-29T03:47:01.153Z,18.55
2022-07-29T03:49:29.042Z,15.23
2022-07-29T03:51:56.214Z,16.10
2022-07-29T03:54:24.171Z,16.92
2022-07-29T03:56:53.776Z,15.23
2022-07-29T03:59:22.013Z,14.57
2022-07-29T04:01:50.177Z,15.48
2022-07-29T04:04:18.005Z,14.20
2022-07-29T04:06:48.310Z,13.32
2022-07-29T04:09:15.473Z,12.40
2022-07-29T04:11:59.147Z,10.80
2022-07-29T04:14:30.150Z,13.70
2022-07-29T04:16:56.999Z,15.00
2022-07-29T04:19:23.883Z,11.68
2022-07-29T04:21:50.830Z,14.13
2022-07-29T04:24:18.563Z,10.02
2022-07-29T04:26:47.651Z,12.73
2022-07-29T04:29:15.535Z,12.43
2022-07-29T04:31:43.307Z,11.65
2022-07-29T04:34:11.241Z,12.48
2022-07-29T04:36:38.128Z,11.63
2022-07-29T04:39:05.735Z,11.43
2022-07-29T04:41:33.730Z,14.30
2022-07-29T04:44:07.194Z,13.57
2022-07-29T04:46:35.481Z,13.30
2022-07-29T04:49:04.186Z,12.52
2022-07-29T04:51:31.431Z,17.23
2022-07-29T04:53:58.366Z,15.52
2022-07-29T04:56:25.409Z,15.00
2022-07-29T04:58:52.674Z,13.85
2022-07-29T05:01:20.382Z,11.80
2022-07-29T05:03:47.280Z,12.25
2022-07-29T05:06:14.200Z,13.35
2022-07-29T05:08:41.997Z,10.75
2022-07-29T05:11:11.461Z,10.90
2022-07-29T05:13:45.526Z,13.65
2022-07-29T05:16:14.684Z,9.15
2022-07-29T05:18:42.111Z,11.15
2022-07-29T05:21:08.990Z,12.35
2022-07-29T05:23:36.043Z,11.52
2022-07-29T05:26:03.098Z,13.38
2022-07-29T05:28:30.031Z,17.27
2022-07-29T05:30:57.476Z,13.68
2022-07-29T05:33:36.023Z,11.98
2022-07-29T05:36:08.052Z,12.93
2022-07-29T05:38:36.760Z,13.23
2022-07-29T05:41:04.837Z,12.02
2022-07-29T05:43:31.791Z,8.52
2022-07-29T05:45:59.176Z,7.82
2022-07-29T05:48:26.566Z,6.80
2022-07-29T05:50:53.531Z,8.88
2022-07-29T05:53:21.042Z,8.57
2022-07-29T05:55:53.345Z,6.35
2022-07-29T05:58:20.824Z,7.93
2022-07-29T06:00:48.029Z,6.57
2022-07-29T06:03:14.962Z,7.28
2022-07-29T06:05:42.057Z,6.70
2022-07-29T06:08:08.935Z,5.00
2022-07-29T06:10:36.567Z,4.00
2022-07-29T06:13:03.743Z,5.30
2022-07-29T06:15:30.605Z,5.40
2022-07-29T06:18:00.324Z,5.00
2022-07-29T06:20:32.834Z,8.35
2022-07-29T06:23:00.589Z,4.68
2022-07-29T06:25:30.558Z,5.70
2022-07-29T06:27:58.506Z,4.93
2022-07-29T06:30:25.502Z,5.43
2022-07-29T06:32:52.382Z,2.80
2022-07-29T06:35:38.536Z,2.47
2022-07-29T06:38:30.794Z,3.78
2022-07-29T06:41:11.229Z,4.00
2022-07-29T06:43:50.842Z,3.42
2022-07-29T06:48:51.088Z,2.10
2022-07-29T06:51:23.372Z,2.60
2022-07-29T06:53:59.526Z,4.30
2022-07-29T06:56:32.059Z,2.17
2022-07-29T06:59:05.823Z,3.10
2022-07-29T07:01:32.702Z,3.70
2022-07-29T07:03:59.609Z,3.55
2022-07-29T07:06:26.504Z,3.38
2022-07-29T07:08:53.345Z,6.40
2022-07-29T07:11:20.338Z,5.53
2022-07-29T07:13:47.331Z,3.72
2022-07-29T07:16:14.252Z,1.17
2022-07-29T07:18:41.687Z,2.83
2022-07-29T07:21:08.731Z,6.38
2022-07-29T07:23:35.682Z,2.40
2022-07-29T07:26:02.627Z,2.63
2022-07-29T07:28:29.571Z,1.98
2022-07-29T07:30:56.610Z,3.78
2022-07-29T07:33:23.869Z,3.63
2022-07-29T07:35:50.818Z,2.60
2022-07-29T07:38:17.807Z,1.60
2022-07-29T07:40:44.707Z,1.88
2022-07-29T07:43:11.594Z,4.13
2022-07-29T07:45:38.676Z,3.05
2022-07-29T07:48:06.177Z,1.70
2022-07-29T07:50:33.278Z,2.75
2022-07-29T07:53:00.729Z,1.40
2022-07-29T07:55:27.864Z,3.15
2022-07-29T07:57:55.928Z,1.63
2022-07-29T08:00:23.872Z,7.45
2022-07-29T08:02:51.705Z,3.13
2022-07-29T08:05:19.738Z,3.17
2022-07-29T08:07:48.021Z,1.35
2022-07-29T08:10:16.448Z,1.92
2022-07-29T08:12:44.865Z,3.20
2022-07-29T08:15:11.809Z,1.55
2022-07-29T08:17:38.717Z,2.33
2022-07-29T08:20:06.264Z,1.63
2022-07-29T08:22:33.166Z,1.08
2022-07-29T08:25:00.060Z,0.98
2022-07-29T08:27:44.809Z,2.53
2022-07-29T08:30:12.025Z,1.63
2022-07-29T08:32:55.553Z,2.92
2022-07-29T08:35:24.542Z,0.80
2022-07-29T08:37:52.062Z,2.58
2022-07-29T08:40:19.361Z,2.10
2022-07-29T08:42:46.513Z,2.80
2022-07-29T08:45:13.907Z,1.42
2022-07-29T08:47:41.322Z,2.95
2022-07-29T08:50:09.703Z,2.50
2022-07-29T08:52:38.486Z,2.00
2022-07-29T08:55:10.758Z,2.05
2022-07-29T08:57:50.882Z,4.22
2022-07-29T09:00:24.301Z,1.25
2022-07-29T09:02:57.289Z,3.42
2022-07-29T09:05:25.979Z,1.83
2022-07-29T09:07:53.385Z,1.50
2022-07-29T09:10:20.597Z,1.77
2022-07-29T09:12:47.886Z,3.30
2022-07-29T09:15:14.744Z,2.30
2022-07-29T09:17:50.498Z,1.80
2022-07-29T09:20:20.461Z,3.63
2022-07-29T09:22:50.776Z,1.70
2022-07-29T09:25:37.274Z,2.03
2022-07-29T09:28:11.087Z,1.20
2022-07-29T09:30:52.675Z,2.72
2022-07-29T09:33:20.128Z,3.15
2022-07-29T09:35:56.613Z,3.53
2022-07-29T09:38:25.737Z,1.40
2022-07-29T09:41:05.975Z,1.00
2022-07-29T09:43:34.176Z,1.27
2022-07-29T09:46:14.602Z,1.65
2022-07-29T09:48:41.732Z,0.83
2022-07-29T09:51:26.989Z,0.68
2022-07-29T09:54:40.257Z,0.30
2022-07-29T09:57:13.601Z,1.10
2022-07-29T09:59:50.066Z,2.70
2022-07-29T10:02:23.478Z,0.40
2022-07-29T10:04:51.054Z,1.75
2022-07-29T10:07:17.951Z,3.92
2022-07-29T10:09:56.375Z,0.65
2022-07-29T10:12:23.522Z,0.73
2022-07-29T10:14:51.186Z,1.15
2022-07-29T10:17:19.466Z,2.22
2022-07-29T10:19:47.286Z,0.30
2022-07-29T10:22:15.041Z,3.85
2022-07-29T10:24:42.186Z,1.38
2022-07-29T10:27:09.947Z,0.80
2022-07-29T10:29:37.513Z,0.30
2022-07-29T10:32:26.061Z,0.93
2022-07-29T10:35:32.436Z,1.15
2022-07-29T10:38:36.250Z,3.33
2022-07-29T10:41:44.115Z,0.95
2022-07-29T10:44:23.295Z,0.93
2022-07-29T10:46:52.365Z,0.73
2022-07-29T10:49:25.226Z,1.23
2022-07-29T10:51:58.797Z,0.75
2022-07-29T10:54:39.665Z,3.83
2022-07-29T10:57:15.322Z,1.65
2022-07-29T10:59:45.451Z,2.67
2022-07-29T11:02:41.728Z,0.60
2022-07-29T11:05:12.145Z,2.53
2022-07-29T11:10:31.212Z,1.00
2022-07-29T11:12:59.406Z,2.15
2022-07-29T11:15:28.569Z,1.05
2022-07-29T11:17:59.658Z,2.35
2022-07-29T11:20:49.880Z,0.50
2022-07-29T11:23:33.473Z,0.60
2022-07-29T11:26:19.094Z,1.25
2022-07-29T11:28:55.630Z,0.47
2022-07-29T11:31:42.955Z,5.88
2022-07-29T11:34:38.166Z,0.77
2022-07-29T11:37:08.077Z,0.80
2022-07-29T11:39:39.979Z,0.45
2022-07-29T11:42:32.080Z,1.15
2022-07-29T11:45:08.416Z,0.93
2022-07-29T11:47:51.725Z,2.25
2022-07-29T11:50:35.908Z,1.45
2022-07-29T11:53:11.249Z,1.92
2022-07-29T11:55:50.888Z,0.63
2022-07-29T11:58:25.184Z,1.33
2022-07-29T12:03:40.274Z,0.73
2022-07-29T12:06:15.035Z,1.48
2022-07-29T12:07:02.431Z,0.43
2022-07-29T12:08:44.131Z,1.83
2022-07-29T12:11:23.536Z,0.50
2022-07-29T12:13:52.683Z,0.80
2022-07-29T12:16:25.462Z,1.88
2022-07-29T12:19:00.425Z,0.93
2022-07-29T12:21:29.477Z,1.98
2022-07-29T12:24:01.769Z,3.85
2022-07-29T12:26:31.918Z,6.35
2022-07-29T12:29:02.365Z,7.15
2022-07-29T12:31:43.874Z,0.50
2022-07-29T12:34:14.303Z,2.30
2022-07-29T12:36:42.938Z,0.95
2022-07-29T12:39:11.204Z,0.57
2022-07-29T12:41:38.558Z,2.75
2022-07-29T12:44:05.712Z,0.60
2022-07-29T12:46:32.753Z,0.30
2022-07-29T12:48:59.909Z,0.82
2022-07-29T12:51:37.963Z,3.00
2022-07-29T12:54:06.391Z,0.88
2022-07-29T12:56:42.607Z,0.88
2022-07-29T12:59:18.311Z,1.00
2022-07-29T13:01:48.187Z,1.35
2022-07-29T13:04:30.129Z,1.00
2022-07-29T13:07:01.667Z,2.15
2022-07-29T13:09:39.825Z,0.57
2022-07-29T13:12:11.788Z,0.88
2022-07-29T13:14:41.660Z,1.13
2022-07-29T13:17:10.349Z,0.80
2022-07-29T13:19:55.058Z,3.90
2022-07-29T13:22:24.044Z,0.43
2022-07-29T13:24:52.595Z,1.00
2022-07-29T13:27:24.654Z,0.65
2022-07-29T13:29:57.598Z,0.80
2022-07-29T13:32:28.735Z,4.45
2022-07-29T13:35:05.433Z,2.70
2022-07-29T13:37:35.367Z,6.38
2022-07-29T13:40:04.581Z,2.05
2022-07-29T13:42:32.582Z,0.68
2022-07-29T13:45:00.167Z,1.55
2022-07-29T13:47:32.342Z,4.65
2022-07-29T13:50:01.610Z,0.47
2022-07-29T13:52:28.661Z,1.83
2022-07-29T13:54:57.448Z,2.33
2022-07-29T13:57:24.339Z,2.33
2022-07-29T13:59:54.356Z,0.93
2022-07-29T14:02:25.365Z,2.40
2022-07-29T14:04:56.407Z,3.60
2022-07-29T14:07:23.740Z,3.33
2022-07-29T14:09:51.307Z,1.40
2022-07-29T14:12:18.654Z,2.63
2022-07-29T14:14:47.333Z,0.80
2022-07-29T14:17:15.026Z,2.42
2022-07-29T14:19:42.610Z,1.63
2022-07-29T14:22:11.049Z,6.18
2022-07-29T14:24:38.779Z,1.00
2022-07-29T14:27:09.506Z,0.80
2022-07-29T14:29:38.510Z,0.57
2022-07-29T14:32:08.390Z,0.50
2022-07-29T14:34:36.731Z,1.00
2022-07-29T14:37:06.976Z,1.63
2022-07-29T14:39:39.313Z,0.70
2022-07-29T14:42:10.307Z,2.17
2022-07-29T14:44:39.809Z,2.28
2022-07-29T14:47:08.168Z,1.67
2022-07-29T14:49:36.220Z,1.63
2022-07-29T14:52:03.681Z,2.05
2022-07-29T14:54:30.662Z,0.73
2022-07-29T14:56:58.740Z,2.83
2022-07-29T14:59:27.068Z,3.00
2022-07-29T15:01:54.299Z,1.48
2022-07-29T15:04:21.417Z,2.72
2022-07-29T15:06:48.618Z,0.50
2022-07-29T15:09:15.516Z,0.30
2022-07-29T15:11:42.461Z,1.80
2022-07-29T15:14:09.448Z,0.65
2022-07-29T15:16:43.867Z,0.30
2022-07-29T15:19:13.537Z,0.80
2022-07-29T15:21:41.618Z,0.63
2022-07-29T15:24:15.302Z,0.57
2022-07-29T15:26:43.588Z,0.30
2022-07-29T15:29:10.835Z,0.20
2022-07-29T15:31:37.998Z,0.22
2022-07-29T15:34:06.130Z,0.40
2022-07-29T15:39:22.482Z,0.52
2022-07-29T15:41:50.190Z,2.40
2022-07-29T15:44:17.285Z,0.75
2022-07-29T15:47:02.862Z,1.38
2022-07-29T15:49:47.607Z,1.40
2022-07-29T15:52:24.919Z,0.80
2022-07-29T15:54:52.476Z,1.63
2022-07-29T15:57:19.531Z,3.20
2022-07-29T15:59:46.477Z,3.70
2022-07-29T16:02:13.458Z,0.68
2022-07-29T16:04:40.409Z,0.45
2022-07-29T16:07:07.770Z,1.42
2022-07-29T16:09:34.764Z,1.48
2022-07-29T16:12:01.699Z,0.50
2022-07-29T16:14:29.104Z,0.45
2022-07-29T16:16:57.123Z,1.27
2022-07-29T16:19:24.481Z,0.70
2022-07-29T16:21:51.379Z,2.05
2022-07-29T16:24:18.947Z,1.55
2022-07-29T16:26:45.887Z,1.83
2022-07-29T16:29:12.926Z,0.45
2022-07-29T16:31:39.854Z,0.80
2022-07-29T16:34:06.766Z,1.50
2022-07-29T16:36:33.711Z,0.47
2022-07-29T16:39:00.764Z,0.80
2022-07-29T16:41:28.216Z,1.73
2022-07-29T16:43:55.581Z,3.58
2022-07-29T16:46:25.855Z,1.30
2022-07-29T16:48:52.962Z,1.37
2022-07-29T16:51:19.944Z,1.98
2022-07-29T16:53:50.284Z,1.23
2022-07-29T16:56:17.566Z,2.33
2022-07-29T16:58:44.624Z,1.27
2022-07-29T17:01:12.611Z,2.13
2022-07-29T17:04:02.308Z,2.28
2022-07-29T17:06:29.761Z,2.05
2022-07-29T17:08:57.230Z,1.58
2022-07-29T17:11:54.018Z,1.83
2022-07-29T17:14:11.661Z,1.20
2022-07-29T17:16:38.806Z,1.83
2022-07-29T17:19:05.702Z,1.67
2022-07-29T17:21:32.646Z,1.25
2022-07-29T17:23:59.889Z,1.73
2022-07-29T17:26:28.242Z,3.55
2022-07-29T17:28:55.746Z,1.20
2022-07-29T17:31:23.640Z,3.85
2022-07-29T17:33:50.608Z,1.20
2022-07-29T17:36:29.926Z,6.72
2022-07-29T17:39:04.297Z,2.72
2022-07-29T17:41:31.400Z,1.10
2022-07-29T17:43:58.642Z,2.80
2022-07-29T17:46:29.223Z,1.10
2022-07-29T17:48:57.589Z,0.85
2022-07-29T17:51:25.682Z,2.08
2022-07-29T17:53:53.191Z,1.95
2022-07-29T17:56:20.290Z,0.75
2022-07-29T17:58:47.693Z,1.95
2022-07-29T18:01:15.732Z,0.60
2022-07-29T18:03:43.674Z,1.20
2022-07-29T18:06:10.928Z,0.85
2022-07-29T18:08:39.256Z,0.88
2022-07-29T18:11:06.916Z,1.33
2022-07-29T18:13:33.859Z,1.20
2022-07-29T18:16:01.110Z,0.90
2022-07-29T18:18:28.368Z,1.15
2022-07-29T18:20:55.621Z,1.35
2022-07-29T18:23:22.664Z,1.17
2022-07-29T18:25:49.620Z,0.93
2022-07-29T18:28:16.757Z,1.30
2022-07-29T18:30:46.332Z,1.42
2022-07-29T18:33:24.256Z,1.33
2022-07-29T18:36:10.719Z,1.20
2022-07-29T18:38:40.381Z,1.90
2022-07-29T18:41:07.694Z,1.58
2022-07-29T18:43:34.694Z,2.80
2022-07-29T18:46:01.678Z,1.42
2022-07-29T18:48:29.640Z,2.72
2022-07-29T18:50:56.591Z,1.63
2022-07-29T18:53:23.385Z,2.08
2022-07-29T18:55:50.375Z,1.60
2022-07-29T18:58:17.325Z,1.30
2022-07-29T19:00:44.226Z,1.60
2022-07-29T19:03:11.269Z,1.35
2022-07-29T19:05:38.360Z,1.52
2022-07-29T19:08:05.560Z,1.20
2022-07-29T19:10:32.659Z,0.90
2022-07-29T19:12:59.565Z,1.20
2022-07-29T19:15:26.674Z,1.08
2022-07-29T19:17:56.569Z,1.77
2022-07-29T19:20:26.077Z,0.50
2022-07-29T19:22:52.930Z,2.65
2022-07-29T19:25:20.119Z,0.80
2022-07-29T19:27:47.376Z,1.15
2022-07-29T19:30:14.373Z,3.45
2022-07-29T19:32:41.213Z,0.60
2022-07-29T19:35:27.104Z,0.50
2022-07-29T19:37:59.070Z,0.60
2022-07-29T19:40:27.900Z,0.30
2022-07-29T19:42:55.163Z,1.63
2022-07-29T19:45:24.881Z,0.32
2022-07-29T19:47:52.224Z,0.73
2022-07-29T19:50:19.581Z,0.63
2022-07-29T19:52:47.281Z,0.10
2022-07-29T19:55:15.374Z,0.32
2022-07-29T19:57:42.513Z,2.65
2022-07-29T20:00:11.747Z,1.10
2022-07-29T20:02:40.414Z,0.68
2022-07-29T20:05:09.075Z,0.43
2022-07-29T20:07:36.794Z,0.32
2022-07-29T20:10:04.757Z,0.20
2022-07-29T20:12:31.915Z,2.10
2022-07-29T20:14:59.068Z,1.17
2022-07-29T20:17:26.052Z,2.03
2022-07-29T20:19:53.303Z,0.43
2022-07-29T20:22:21.516Z,0.50
2022-07-29T20:24:50.062Z,1.70
2022-07-29T20:27:17.118Z,0.40
2022-07-29T20:29:44.003Z,0.20
2022-07-29T20:32:12.646Z,1.80
2022-07-29T20:34:42.771Z,0.88
2022-07-29T20:37:14.726Z,1.40
2022-07-29T20:39:46.537Z,0.50
2022-07-29T20:42:13.843Z,0.32
2022-07-29T20:44:40.734Z,0.65
2022-07-29T20:47:08.038Z,1.45
2022-07-29T20:49:36.520Z,0.82
2022-07-29T20:52:04.376Z,1.88
2022-07-29T20:54:31.378Z,0.47
2022-07-29T20:56:58.722Z,0.35
2022-07-29T20:59:25.778Z,1.02
2022-07-29T21:01:52.714Z,0.30
2022-07-29T21:04:19.823Z,3.45
2022-07-29T21:06:46.683Z,1.40
2022-07-29T21:09:13.664Z,2.17
2022-07-29T21:11:44.692Z,0.60
2022-07-29T21:16:54.156Z,1.30
2022-07-29T21:19:21.104Z,1.73
2022-07-29T21:21:48.006Z,2.30
2022-07-29T21:24:14.941Z,1.83
2022-07-29T21:26:47.180Z,2.00
2022-07-29T21:29:18.694Z,2.55
2022-07-29T21:31:45.654Z,2.58
2022-07-29T21:34:14.615Z,2.60
2022-07-29T21:36:48.205Z,2.88
2022-07-29T21:39:26.358Z,3.70
2022-07-29T21:41:53.468Z,4.10
2022-07-29T21:44:22.151Z,2.35
2022-07-29T21:46:49.602Z,2.75
2022-07-29T21:49:18.782Z,3.50
2022-07-29T21:51:45.908Z,3.35
2022-07-29T21:54:12.953Z,2.65
2022-07-29T21:56:41.266Z,3.72
2022-07-29T21:59:09.770Z,2.10
2022-07-29T22:01:39.137Z,4.03
2022-07-29T22:04:06.795Z,4.38
2022-07-29T22:06:34.731Z,5.07
2022-07-29T22:09:01.731Z,3.22
2022-07-29T22:11:28.674Z,4.30
2022-07-29T22:13:55.578Z,3.30
2022-07-29T22:16:22.457Z,4.07
2022-07-29T22:18:49.574Z,5.93
2022-07-29T22:21:16.451Z,3.55
2022-07-29T22:23:43.409Z,5.20
2022-07-29T22:26:10.300Z,7.20
2022-07-29T22:28:37.196Z,4.55
2022-07-29T22:31:04.254Z,3.20
2022-07-29T22:33:31.122Z,6.07
2022-07-29T22:35:57.971Z,4.68
2022-07-29T22:38:24.876Z,4.97
2022-07-29T22:40:52.530Z,4.13
2022-07-29T22:43:19.731Z,4.45
2022-07-29T22:45:46.827Z,4.70
2022-07-29T22:48:13.673Z,4.32
2022-07-29T22:50:41.063Z,8.07
2022-07-29T22:53:08.176Z,4.97
2022-07-29T22:55:35.010Z,6.47
2022-07-29T22:58:01.921Z,5.43
2022-07-29T23:00:28.872Z,3.40
2022-07-29T23:02:55.696Z,3.53
2022-07-29T23:05:22.541Z,7.25
2022-07-29T23:07:49.381Z,4.97
2022-07-29T23:10:16.330Z,5.97
2022-07-29T23:12:43.273Z,5.43
2022-07-29T23:15:10.113Z,5.53
2022-07-29T23:17:37.087Z,7.00
2022-07-29T23:20:09.927Z,7.95
2022-07-29T23:22:37.301Z,6.20
2022-07-29T23:25:05.224Z,4.82
2022-07-29T23:27:32.363Z,5.47
2022-07-29T23:29:59.213Z,5.35
2022-07-29T23:32:26.065Z,5.00
2022-07-29T23:34:52.893Z,4.50
2022-07-29T23:37:20.062Z,5.43
2022-07-29T23:39:47.007Z,4.32
2022-07-29T23:42:13.964Z,3.97
2022-07-29T23:44:40.828Z,2.40
2022-07-29T23:47:07.875Z,4.72
2022-07-29T23:49:34.874Z,5.65
2022-07-29T23:52:01.764Z,3.17
2022-07-29T23:54:28.618Z,6.53
2022-07-29T23:56:58.159Z,4.80
2022-07-29T23:59:25.524Z,3.78
